sensor_id;sensor_type;location;lat;lon;timestamp;pressure;altitude;pressure_sealevel;temperature;humidity
56582;BME280;42463;52.214;21.238;2023-04-29T00:00:48;100384.65;;;9.13;47.53
56582;BME280;42463;52.214;21.238;2023-04-29T00:02:53;100383.27;;;9.11;47.53
56582;BME280;42463;52.214;21.238;2023-04-29T00:04:56;100386.59;;;9.09;47.66
56582;BME280;42463;52.214;21.238;2023-04-29T00:06:59;100383.80;;;9.08;47.78
56582;BME280;42463;52.214;21.238;2023-04-29T00:09:02;100382.91;;;9.06;47.68
56582;BME280;42463;52.214;21.238;2023-04-29T00:11:05;100381.42;;;9.04;47.67
56582;BME280;42463;52.214;21.238;2023-04-29T00:13:08;100380.00;;;9.03;47.78
56582;BME280;42463;52.214;21.238;2023-04-29T00:15:11;100376.60;;;9.01;47.73
56582;BME280;42463;52.214;21.238;2023-04-29T00:17:14;100380.39;;;8.97;47.94
56582;BME280;42463;52.214;21.238;2023-04-29T00:19:17;100377.55;;;8.92;47.92
56582;BME280;42463;52.214;21.238;2023-04-29T00:21:19;100375.97;;;8.89;47.99
56582;BME280;42463;52.214;21.238;2023-04-29T00:23:22;100377.45;;;8.87;48.14
56582;BME280;42463;52.214;21.238;2023-04-29T00:25:25;100376.88;;;8.85;48.08
56582;BME280;42463;52.214;21.238;2023-04-29T00:27:28;100373.02;;;8.85;48.36
56582;BME280;42463;52.214;21.238;2023-04-29T00:29:31;100375.92;;;8.83;48.18
56582;BME280;42463;52.214;21.238;2023-04-29T00:31:34;100369.46;;;8.82;48.13
56582;BME280;42463;52.214;21.238;2023-04-29T00:33:38;100370.01;;;8.82;48.43
56582;BME280;42463;52.214;21.238;2023-04-29T00:35:42;100366.71;;;8.83;48.22
56582;BME280;42463;52.214;21.238;2023-04-29T00:37:44;100366.71;;;8.82;48.23
56582;BME280;42463;52.214;21.238;2023-04-29T00:39:47;100365.33;;;8.81;48.25
56582;BME280;42463;52.214;21.238;2023-04-29T00:41:50;100366.55;;;8.79;48.17
56582;BME280;42463;52.214;21.238;2023-04-29T00:43:53;100361.75;;;8.77;48.19
56582;BME280;42463;52.214;21.238;2023-04-29T00:45:56;100360.52;;;8.75;48.32
56582;BME280;42463;52.214;21.238;2023-04-29T00:47:58;100364.42;;;8.72;48.45
56582;BME280;42463;52.214;21.238;2023-04-29T00:50:02;100361.71;;;8.72;48.45
56582;BME280;42463;52.214;21.238;2023-04-29T00:52:04;100359.30;;;8.70;48.44
56582;BME280;42463;52.214;21.238;2023-04-29T00:54:09;100354.42;;;8.67;48.52
56582;BME280;42463;52.214;21.238;2023-04-29T00:56:13;100348.38;;;8.64;48.65
56582;BME280;42463;52.214;21.238;2023-04-29T00:58:17;100349.67;;;8.61;48.68
56582;BME280;42463;52.214;21.238;2023-04-29T01:03:33;100346.20;;;8.60;48.80
56582;BME280;42463;52.214;21.238;2023-04-29T01:05:36;100345.06;;;8.60;48.82
56582;BME280;42463;52.214;21.238;2023-04-29T01:07:47;100341.70;;;8.60;48.57
56582;BME280;42463;52.214;21.238;2023-04-29T01:10:02;100345.86;;;8.59;48.80
56582;BME280;42463;52.214;21.238;2023-04-29T01:12:10;100343.17;;;8.57;48.80
56582;BME280;42463;52.214;21.238;2023-04-29T01:14:15;100343.48;;;8.56;48.64
56582;BME280;42463;52.214;21.238;2023-04-29T01:16:22;100345.69;;;8.56;49.00
56582;BME280;42463;52.214;21.238;2023-04-29T01:18:31;100349.39;;;8.54;48.87
56582;BME280;42463;52.214;21.238;2023-04-29T01:20:36;100349.43;;;8.54;49.10
56582;BME280;42463;52.214;21.238;2023-04-29T01:22:40;100351.32;;;8.53;49.07
56582;BME280;42463;52.214;21.238;2023-04-29T01:24:42;100350.67;;;8.54;48.97
56582;BME280;42463;52.214;21.238;2023-04-29T01:26:50;100349.50;;;8.55;49.13
56582;BME280;42463;52.214;21.238;2023-04-29T01:29:23;100349.90;;;8.55;49.05
56582;BME280;42463;52.214;21.238;2023-04-29T01:31:35;100349.98;;;8.57;49.03
56582;BME280;42463;52.214;21.238;2023-04-29T01:33:45;100353.13;;;8.58;49.10
56582;BME280;42463;52.214;21.238;2023-04-29T01:36:02;100353.65;;;8.57;49.00
56582;BME280;42463;52.214;21.238;2023-04-29T01:38:16;100356.15;;;8.57;49.15
56582;BME280;42463;52.214;21.238;2023-04-29T01:40:31;100354.30;;;8.56;49.17
56582;BME280;42463;52.214;21.238;2023-04-29T01:42:54;100354.77;;;8.55;48.97
56582;BME280;42463;52.214;21.238;2023-04-29T01:45:04;100351.05;;;8.56;49.11
56582;BME280;42463;52.214;21.238;2023-04-29T01:47:12;100349.65;;;8.57;49.09
56582;BME280;42463;52.214;21.238;2023-04-29T01:49:20;100352.17;;;8.58;49.07
56582;BME280;42463;52.214;21.238;2023-04-29T01:51:23;100346.98;;;8.59;49.15
56582;BME280;42463;52.214;21.238;2023-04-29T01:53:26;100347.25;;;8.58;49.07
56582;BME280;42463;52.214;21.238;2023-04-29T01:55:29;100346.46;;;8.57;49.08
56582;BME280;42463;52.214;21.238;2023-04-29T01:57:52;100344.10;;;8.55;49.11
56582;BME280;42463;52.214;21.238;2023-04-29T02:00:12;100339.98;;;8.54;49.14
56582;BME280;42463;52.214;21.238;2023-04-29T02:02:20;100335.72;;;8.55;49.31
56582;BME280;42463;52.214;21.238;2023-04-29T02:04:33;100337.48;;;8.54;49.22
56582;BME280;42463;52.214;21.238;2023-04-29T02:06:38;100339.33;;;8.54;49.42
56582;BME280;42463;52.214;21.238;2023-04-29T02:08:41;100337.70;;;8.54;49.33
56582;BME280;42463;52.214;21.238;2023-04-29T02:10:52;100335.54;;;8.54;49.37
56582;BME280;42463;52.214;21.238;2023-04-29T02:13:14;100339.02;;;8.55;49.30
56582;BME280;42463;52.214;21.238;2023-04-29T02:15:18;100342.23;;;8.56;49.29
56582;BME280;42463;52.214;21.238;2023-04-29T02:17:21;100339.12;;;8.57;49.40
56582;BME280;42463;52.214;21.238;2023-04-29T02:19:23;100338.60;;;8.58;49.37
56582;BME280;42463;52.214;21.238;2023-04-29T02:21:27;100335.84;;;8.59;49.42
56582;BME280;42463;52.214;21.238;2023-04-29T02:23:31;100334.99;;;8.60;49.31
56582;BME280;42463;52.214;21.238;2023-04-29T02:25:34;100334.55;;;8.59;49.28
56582;BME280;42463;52.214;21.238;2023-04-29T02:27:37;100336.83;;;8.59;49.49
56582;BME280;42463;52.214;21.238;2023-04-29T02:29:40;100334.62;;;8.60;49.40
56582;BME280;42463;52.214;21.238;2023-04-29T02:31:43;100334.08;;;8.60;49.40
56582;BME280;42463;52.214;21.238;2023-04-29T02:33:45;100333.27;;;8.60;49.36
56582;BME280;42463;52.214;21.238;2023-04-29T02:35:48;100331.02;;;8.61;49.31
56582;BME280;42463;52.214;21.238;2023-04-29T02:37:52;100325.73;;;8.61;49.40
56582;BME280;42463;52.214;21.238;2023-04-29T02:39:54;100323.18;;;8.61;49.35
56582;BME280;42463;52.214;21.238;2023-04-29T02:41:57;100323.19;;;8.61;49.43
56582;BME280;42463;52.214;21.238;2023-04-29T02:44:00;100321.83;;;8.61;49.39
56582;BME280;42463;52.214;21.238;2023-04-29T02:46:03;100324.27;;;8.61;49.44
56582;BME280;42463;52.214;21.238;2023-04-29T02:48:07;100322.70;;;8.62;49.42
56582;BME280;42463;52.214;21.238;2023-04-29T02:50:10;100317.97;;;8.63;49.50
56582;BME280;42463;52.214;21.238;2023-04-29T02:52:13;100324.09;;;8.63;49.32
56582;BME280;42463;52.214;21.238;2023-04-29T02:54:16;100322.91;;;8.64;49.42
56582;BME280;42463;52.214;21.238;2023-04-29T02:56:18;100321.76;;;8.63;49.28
56582;BME280;42463;52.214;21.238;2023-04-29T02:58:21;100323.27;;;8.61;49.28
56582;BME280;42463;52.214;21.238;2023-04-29T03:00:24;100321.21;;;8.60;49.54
56582;BME280;42463;52.214;21.238;2023-04-29T03:02:27;100320.09;;;8.60;49.43
56582;BME280;42463;52.214;21.238;2023-04-29T03:04:32;100317.08;;;8.59;49.56
56582;BME280;42463;52.214;21.238;2023-04-29T03:06:35;100320.27;;;8.58;49.59
56582;BME280;42463;52.214;21.238;2023-04-29T03:08:38;100316.11;;;8.59;49.71
56582;BME280;42463;52.214;21.238;2023-04-29T03:10:40;100318.56;;;8.60;49.52
56582;BME280;42463;52.214;21.238;2023-04-29T03:12:44;100319.08;;;8.59;49.48
56582;BME280;42463;52.214;21.238;2023-04-29T03:14:47;100317.51;;;8.58;49.58
56582;BME280;42463;52.214;21.238;2023-04-29T03:16:50;100315.98;;;8.58;49.57
56582;BME280;42463;52.214;21.238;2023-04-29T03:18:54;100310.27;;;8.59;49.76
56582;BME280;42463;52.214;21.238;2023-04-29T03:20:59;100312.75;;;8.59;49.61
56582;BME280;42463;52.214;21.238;2023-04-29T03:23:02;100310.44;;;8.56;49.39
56582;BME280;42463;52.214;21.238;2023-04-29T03:25:07;100315.29;;;8.55;49.70
56582;BME280;42463;52.214;21.238;2023-04-29T03:27:12;100312.28;;;8.54;49.58
56582;BME280;42463;52.214;21.238;2023-04-29T03:29:15;100315.38;;;8.55;49.70
56582;BME280;42463;52.214;21.238;2023-04-29T03:31:18;100312.18;;;8.57;49.71
56582;BME280;42463;52.214;21.238;2023-04-29T03:33:23;100313.16;;;8.58;49.77
56582;BME280;42463;52.214;21.238;2023-04-29T03:35:26;100310.13;;;8.57;49.64
56582;BME280;42463;52.214;21.238;2023-04-29T03:37:46;100314.11;;;8.56;49.78
56582;BME280;42463;52.214;21.238;2023-04-29T03:39:55;100316.77;;;8.56;49.73
56582;BME280;42463;52.214;21.238;2023-04-29T03:41:58;100309.92;;;8.57;49.82
56582;BME280;42463;52.214;21.238;2023-04-29T03:44:00;100311.13;;;8.59;49.80
56582;BME280;42463;52.214;21.238;2023-04-29T03:46:04;100310.10;;;8.58;49.74
56582;BME280;42463;52.214;21.238;2023-04-29T03:48:07;100315.09;;;8.57;49.87
56582;BME280;42463;52.214;21.238;2023-04-29T03:50:10;100314.55;;;8.57;49.91
56582;BME280;42463;52.214;21.238;2023-04-29T03:52:13;100315.51;;;8.59;50.00
56582;BME280;42463;52.214;21.238;2023-04-29T03:54:17;100311.95;;;8.59;49.94
56582;BME280;42463;52.214;21.238;2023-04-29T03:56:20;100309.81;;;8.60;49.88
56582;BME280;42463;52.214;21.238;2023-04-29T03:58:24;100312.37;;;8.61;49.91
56582;BME280;42463;52.214;21.238;2023-04-29T04:00:27;100311.20;;;8.63;49.95
56582;BME280;42463;52.214;21.238;2023-04-29T04:02:32;100311.61;;;8.65;49.86
56582;BME280;42463;52.214;21.238;2023-04-29T04:04:36;100309.49;;;8.65;50.00
56582;BME280;42463;52.214;21.238;2023-04-29T04:06:39;100309.09;;;8.66;49.94
56582;BME280;42463;52.214;21.238;2023-04-29T04:08:42;100309.27;;;8.67;49.91
56582;BME280;42463;52.214;21.238;2023-04-29T04:10:54;100307.34;;;8.68;49.99
56582;BME280;42463;52.214;21.238;2023-04-29T04:13:10;100308.52;;;8.70;49.80
56582;BME280;42463;52.214;21.238;2023-04-29T04:15:14;100304.30;;;8.70;49.92
56582;BME280;42463;52.214;21.238;2023-04-29T04:17:18;100309.02;;;8.72;49.89
56582;BME280;42463;52.214;21.238;2023-04-29T04:19:21;100304.65;;;8.72;49.86
56582;BME280;42463;52.214;21.238;2023-04-29T04:21:25;100301.05;;;8.74;49.74
56582;BME280;42463;52.214;21.238;2023-04-29T04:23:36;100302.48;;;8.76;49.86
56582;BME280;42463;52.214;21.238;2023-04-29T04:25:45;100306.08;;;8.77;49.82
56582;BME280;42463;52.214;21.238;2023-04-29T04:28:06;100301.42;;;8.79;49.85
56582;BME280;42463;52.214;21.238;2023-04-29T04:30:26;100300.92;;;8.79;49.83
56582;BME280;42463;52.214;21.238;2023-04-29T04:32:29;100299.02;;;8.78;49.73
56582;BME280;42463;52.214;21.238;2023-04-29T04:34:32;100301.20;;;8.79;49.89
56582;BME280;42463;52.214;21.238;2023-04-29T04:36:36;100300.16;;;8.81;49.86
56582;BME280;42463;52.214;21.238;2023-04-29T04:38:39;100300.80;;;8.84;50.03
56582;BME280;42463;52.214;21.238;2023-04-29T04:40:44;100300.51;;;8.87;49.92
56582;BME280;42463;52.214;21.238;2023-04-29T04:43:05;100299.53;;;8.90;49.84
56582;BME280;42463;52.214;21.238;2023-04-29T04:45:10;100299.14;;;8.92;49.90
56582;BME280;42463;52.214;21.238;2023-04-29T04:47:25;100292.15;;;8.95;49.98
56582;BME280;42463;52.214;21.238;2023-04-29T04:49:35;100293.10;;;8.97;50.02
56582;BME280;42463;52.214;21.238;2023-04-29T04:51:38;100292.00;;;9.00;49.90
56582;BME280;42463;52.214;21.238;2023-04-29T04:53:41;100288.70;;;9.03;49.84
56582;BME280;42463;52.214;21.238;2023-04-29T04:55:53;100289.44;;;9.05;49.70
56582;BME280;42463;52.214;21.238;2023-04-29T04:57:56;100285.66;;;9.10;49.76
56582;BME280;42463;52.214;21.238;2023-04-29T05:00:00;100286.86;;;9.10;49.66
56582;BME280;42463;52.214;21.238;2023-04-29T05:02:03;100287.12;;;9.13;49.81
56582;BME280;42463;52.214;21.238;2023-04-29T05:04:06;100287.91;;;9.16;49.75
56582;BME280;42463;52.214;21.238;2023-04-29T05:06:09;100288.11;;;9.21;49.93
56582;BME280;42463;52.214;21.238;2023-04-29T05:08:13;100288.23;;;9.26;49.63
56582;BME280;42463;52.214;21.238;2023-04-29T05:10:19;100289.11;;;9.31;49.64
56582;BME280;42463;52.214;21.238;2023-04-29T05:12:27;100284.45;;;9.34;49.53
56582;BME280;42463;52.214;21.238;2023-04-29T05:14:32;100286.69;;;9.41;49.41
56582;BME280;42463;52.214;21.238;2023-04-29T05:16:35;100285.02;;;9.46;49.34
56582;BME280;42463;52.214;21.238;2023-04-29T05:18:38;100287.10;;;9.52;49.30
56582;BME280;42463;52.214;21.238;2023-04-29T05:20:40;100284.22;;;9.58;49.30
56582;BME280;42463;52.214;21.238;2023-04-29T05:22:43;100280.79;;;9.66;49.29
56582;BME280;42463;52.214;21.238;2023-04-29T05:24:46;100279.09;;;9.74;49.21
56582;BME280;42463;52.214;21.238;2023-04-29T05:26:51;100272.95;;;9.81;48.91
56582;BME280;42463;52.214;21.238;2023-04-29T05:28:55;100275.63;;;9.87;48.98
56582;BME280;42463;52.214;21.238;2023-04-29T05:30:59;100275.56;;;9.95;48.79
56582;BME280;42463;52.214;21.238;2023-04-29T05:33:01;100275.00;;;10.03;48.62
56582;BME280;42463;52.214;21.238;2023-04-29T05:35:06;100271.74;;;10.08;48.48
56582;BME280;42463;52.214;21.238;2023-04-29T05:37:10;100276.20;;;10.14;48.24
56582;BME280;42463;52.214;21.238;2023-04-29T05:39:21;100275.81;;;10.22;48.15
56582;BME280;42463;52.214;21.238;2023-04-29T05:41:35;100281.48;;;10.29;48.41
56582;BME280;42463;52.214;21.238;2023-04-29T05:44:05;100277.68;;;10.38;48.11
56582;BME280;42463;52.214;21.238;2023-04-29T05:46:08;100279.11;;;10.44;47.81
56582;BME280;42463;52.214;21.238;2023-04-29T05:48:10;100278.44;;;10.53;47.87
56582;BME280;42463;52.214;21.238;2023-04-29T05:50:13;100275.79;;;10.60;47.56
56582;BME280;42463;52.214;21.238;2023-04-29T05:52:16;100276.75;;;10.65;47.34
56582;BME280;42463;52.214;21.238;2023-04-29T05:54:21;100274.77;;;10.68;47.03
56582;BME280;42463;52.214;21.238;2023-04-29T05:56:24;100276.23;;;10.73;47.07
56582;BME280;42463;52.214;21.238;2023-04-29T05:58:27;100271.21;;;10.78;46.94
56582;BME280;42463;52.214;21.238;2023-04-29T06:00:30;100273.50;;;10.85;46.99
56582;BME280;42463;52.214;21.238;2023-04-29T06:02:35;100275.89;;;10.94;47.09
56582;BME280;42463;52.214;21.238;2023-04-29T06:04:41;100276.71;;;11.00;46.72
56582;BME280;42463;52.214;21.238;2023-04-29T06:07:00;100272.86;;;11.09;46.92
56582;BME280;42463;52.214;21.238;2023-04-29T06:09:30;100272.65;;;11.19;46.54
56582;BME280;42463;52.214;21.238;2023-04-29T06:11:37;100269.98;;;11.27;46.45
56582;BME280;42463;52.214;21.238;2023-04-29T06:13:40;100273.67;;;11.35;46.39
56582;BME280;42463;52.214;21.238;2023-04-29T06:15:44;100273.19;;;11.43;46.49
56582;BME280;42463;52.214;21.238;2023-04-29T06:17:48;100274.13;;;11.51;46.17
56582;BME280;42463;52.214;21.238;2023-04-29T06:19:51;100278.28;;;11.59;45.91
56582;BME280;42463;52.214;21.238;2023-04-29T06:21:53;100275.66;;;11.67;45.52
56582;BME280;42463;52.214;21.238;2023-04-29T06:23:57;100282.22;;;11.74;45.12
56582;BME280;42463;52.214;21.238;2023-04-29T06:26:00;100278.04;;;11.80;45.12
56582;BME280;42463;52.214;21.238;2023-04-29T06:28:03;100275.94;;;11.87;45.10
56582;BME280;42463;52.214;21.238;2023-04-29T06:30:09;100278.96;;;11.96;45.21
56582;BME280;42463;52.214;21.238;2023-04-29T06:32:13;100276.70;;;12.04;44.85
56582;BME280;42463;52.214;21.238;2023-04-29T06:34:16;100273.30;;;12.12;44.80
56582;BME280;42463;52.214;21.238;2023-04-29T06:36:42;100269.68;;;12.23;44.63
56582;BME280;42463;52.214;21.238;2023-04-29T06:39:00;100271.77;;;12.33;44.47
56582;BME280;42463;52.214;21.238;2023-04-29T06:41:25;100271.35;;;12.44;43.99
56582;BME280;42463;52.214;21.238;2023-04-29T06:43:43;100271.72;;;12.52;43.72
56582;BME280;42463;52.214;21.238;2023-04-29T06:46:01;100264.16;;;12.61;43.42
56582;BME280;42463;52.214;21.238;2023-04-29T06:48:10;100264.21;;;12.69;43.13
56582;BME280;42463;52.214;21.238;2023-04-29T06:50:23;100266.61;;;12.78;43.11
56582;BME280;42463;52.214;21.238;2023-04-29T06:52:26;100267.86;;;12.85;42.90
56582;BME280;42463;52.214;21.238;2023-04-29T06:54:28;100266.88;;;12.93;42.72
56582;BME280;42463;52.214;21.238;2023-04-29T06:56:32;100263.65;;;13.01;42.50
56582;BME280;42463;52.214;21.238;2023-04-29T06:58:34;100264.89;;;13.11;42.45
56582;BME280;42463;52.214;21.238;2023-04-29T07:00:37;100266.98;;;13.19;42.25
56582;BME280;42463;52.214;21.238;2023-04-29T07:02:40;100267.79;;;13.26;42.00
56582;BME280;42463;52.214;21.238;2023-04-29T07:04:44;100265.86;;;13.31;41.67
56582;BME280;42463;52.214;21.238;2023-04-29T07:06:47;100264.16;;;13.38;41.41
56582;BME280;42463;52.214;21.238;2023-04-29T07:08:50;100262.95;;;13.42;41.00
56582;BME280;42463;52.214;21.238;2023-04-29T07:10:56;100263.75;;;13.46;40.68
56582;BME280;42463;52.214;21.238;2023-04-29T07:13:00;100258.30;;;13.51;40.90
56582;BME280;42463;52.214;21.238;2023-04-29T07:15:02;100257.21;;;13.56;40.61
56582;BME280;42463;52.214;21.238;2023-04-29T07:17:05;100255.34;;;13.62;40.50
56582;BME280;42463;52.214;21.238;2023-04-29T07:19:08;100257.39;;;13.67;40.09
56582;BME280;42463;52.214;21.238;2023-04-29T07:21:11;100258.19;;;13.72;40.06
56582;BME280;42463;52.214;21.238;2023-04-29T07:23:15;100255.99;;;13.77;40.10
56582;BME280;42463;52.214;21.238;2023-04-29T07:25:18;100259.63;;;13.82;40.18
56582;BME280;42463;52.214;21.238;2023-04-29T07:27:20;100251.35;;;13.87;40.07
56582;BME280;42463;52.214;21.238;2023-04-29T07:29:23;100250.67;;;13.94;40.33
56582;BME280;42463;52.214;21.238;2023-04-29T07:31:26;100248.89;;;14.02;40.16
56582;BME280;42463;52.214;21.238;2023-04-29T07:33:30;100251.95;;;14.10;39.99
56582;BME280;42463;52.214;21.238;2023-04-29T07:35:33;100245.41;;;14.19;40.40
56582;BME280;42463;52.214;21.238;2023-04-29T07:37:35;100250.86;;;14.29;40.09
56582;BME280;42463;52.214;21.238;2023-04-29T07:39:39;100249.92;;;14.37;40.04
56582;BME280;42463;52.214;21.238;2023-04-29T07:41:44;100246.17;;;14.47;39.71
56582;BME280;42463;52.214;21.238;2023-04-29T07:43:47;100246.21;;;14.57;40.11
56582;BME280;42463;52.214;21.238;2023-04-29T07:45:49;100246.63;;;14.69;40.07
56582;BME280;42463;52.214;21.238;2023-04-29T07:47:52;100250.92;;;14.78;39.26
56582;BME280;42463;52.214;21.238;2023-04-29T07:49:56;100243.92;;;14.84;39.23
56582;BME280;42463;52.214;21.238;2023-04-29T07:51:59;100248.02;;;14.92;39.25
56582;BME280;42463;52.214;21.238;2023-04-29T07:54:02;100248.00;;;14.99;39.61
56582;BME280;42463;52.214;21.238;2023-04-29T07:56:07;100248.93;;;15.10;39.53
56582;BME280;42463;52.214;21.238;2023-04-29T07:58:10;100247.81;;;15.19;39.30
56582;BME280;42463;52.214;21.238;2023-04-29T08:00:14;100247.63;;;15.27;38.73
56582;BME280;42463;52.214;21.238;2023-04-29T08:02:18;100245.09;;;15.33;38.57
56582;BME280;42463;52.214;21.238;2023-04-29T08:04:22;100249.94;;;15.39;38.00
56582;BME280;42463;52.214;21.238;2023-04-29T08:06:44;100249.86;;;15.46;37.89
56582;BME280;42463;52.214;21.238;2023-04-29T08:08:47;100249.72;;;15.49;37.53
56582;BME280;42463;52.214;21.238;2023-04-29T08:10:50;100255.40;;;15.54;37.08
56582;BME280;42463;52.214;21.238;2023-04-29T08:12:53;100251.39;;;15.56;37.25
56582;BME280;42463;52.214;21.238;2023-04-29T08:14:55;100252.31;;;15.60;37.34
56582;BME280;42463;52.214;21.238;2023-04-29T08:16:58;100252.15;;;15.66;37.26
56582;BME280;42463;52.214;21.238;2023-04-29T08:19:01;100253.84;;;15.72;37.33
56582;BME280;42463;52.214;21.238;2023-04-29T08:21:04;100251.10;;;15.77;37.27
56582;BME280;42463;52.214;21.238;2023-04-29T08:23:07;100253.98;;;15.81;36.64
56582;BME280;42463;52.214;21.238;2023-04-29T08:25:10;100244.61;;;15.83;36.43
56582;BME280;42463;52.214;21.238;2023-04-29T08:27:13;100240.98;;;15.83;36.14
56582;BME280;42463;52.214;21.238;2023-04-29T08:29:16;100237.05;;;15.83;36.40
56582;BME280;42463;52.214;21.238;2023-04-29T08:31:20;100252.55;;;15.87;36.67
56582;BME280;42463;52.214;21.238;2023-04-29T08:33:23;100241.41;;;15.89;35.97
56582;BME280;42463;52.214;21.238;2023-04-29T08:35:26;100242.10;;;15.91;36.64
56582;BME280;42463;52.214;21.238;2023-04-29T08:37:29;100242.08;;;15.97;36.98
56582;BME280;42463;52.214;21.238;2023-04-29T08:39:32;100241.15;;;16.05;36.11
56582;BME280;42463;52.214;21.238;2023-04-29T08:41:36;100238.27;;;16.11;36.06
56582;BME280;42463;52.214;21.238;2023-04-29T08:43:39;100242.89;;;16.17;35.79
56582;BME280;42463;52.214;21.238;2023-04-29T08:45:42;100232.70;;;16.21;35.30
56582;BME280;42463;52.214;21.238;2023-04-29T08:47:44;100230.05;;;16.23;35.57
56582;BME280;42463;52.214;21.238;2023-04-29T08:49:48;100231.02;;;16.30;35.82
56582;BME280;42463;52.214;21.238;2023-04-29T08:51:51;100229.66;;;16.37;35.64
56582;BME280;42463;52.214;21.238;2023-04-29T08:53:55;100236.95;;;16.44;35.61
56582;BME280;42463;52.214;21.238;2023-04-29T08:56:02;100231.73;;;16.48;35.14
56582;BME280;42463;52.214;21.238;2023-04-29T08:58:07;100237.33;;;16.51;34.93
56582;BME280;42463;52.214;21.238;2023-04-29T09:00:11;100241.05;;;16.54;34.85
56582;BME280;42463;52.214;21.238;2023-04-29T09:02:16;100239.16;;;16.57;34.97
56582;BME280;42463;52.214;21.238;2023-04-29T09:04:27;100236.57;;;16.58;35.01
56582;BME280;42463;52.214;21.238;2023-04-29T09:06:31;100234.65;;;16.61;35.59
56582;BME280;42463;52.214;21.238;2023-04-29T09:08:35;100230.89;;;16.67;35.10
56582;BME280;42463;52.214;21.238;2023-04-29T09:10:39;100236.17;;;16.72;35.28
56582;BME280;42463;52.214;21.238;2023-04-29T09:12:44;100223.55;;;16.77;35.37
56582;BME280;42463;52.214;21.238;2023-04-29T09:14:48;100231.08;;;16.85;35.76
56582;BME280;42463;52.214;21.238;2023-04-29T09:16:50;100227.11;;;16.92;35.53
56582;BME280;42463;52.214;21.238;2023-04-29T09:18:53;100229.56;;;16.99;35.52
56582;BME280;42463;52.214;21.238;2023-04-29T09:20:56;100230.77;;;17.05;35.39
56582;BME280;42463;52.214;21.238;2023-04-29T09:23:00;100229.79;;;17.11;35.32
56582;BME280;42463;52.214;21.238;2023-04-29T09:25:13;100233.09;;;17.17;35.23
56582;BME280;42463;52.214;21.238;2023-04-29T09:27:26;100230.67;;;17.19;34.82
56582;BME280;42463;52.214;21.238;2023-04-29T09:29:30;100219.92;;;17.22;34.78
56582;BME280;42463;52.214;21.238;2023-04-29T09:31:35;100235.55;;;17.26;35.10
56582;BME280;42463;52.214;21.238;2023-04-29T09:33:52;100226.98;;;17.29;35.05
56582;BME280;42463;52.214;21.238;2023-04-29T09:35:55;100223.43;;;17.34;34.71
56582;BME280;42463;52.214;21.238;2023-04-29T09:38:09;100225.45;;;17.38;34.93
56582;BME280;42463;52.214;21.238;2023-04-29T09:42:41;100218.31;;;17.51;35.43
56582;BME280;42463;52.214;21.238;2023-04-29T09:44:45;100218.37;;;17.59;34.92
56582;BME280;42463;52.214;21.238;2023-04-29T09:46:54;100213.19;;;17.63;33.99
56582;BME280;42463;52.214;21.238;2023-04-29T09:48:58;100209.04;;;17.65;34.13
56582;BME280;42463;52.214;21.238;2023-04-29T09:51:01;100213.00;;;17.69;34.36
56582;BME280;42463;52.214;21.238;2023-04-29T09:53:04;100205.70;;;17.72;34.21
56582;BME280;42463;52.214;21.238;2023-04-29T09:55:11;100202.08;;;17.75;34.03
56582;BME280;42463;52.214;21.238;2023-04-29T09:57:16;100205.02;;;17.79;34.10
56582;BME280;42463;52.214;21.238;2023-04-29T09:59:21;100207.13;;;17.83;34.07
56582;BME280;42463;52.214;21.238;2023-04-29T10:01:26;100199.54;;;17.89;34.37
56582;BME280;42463;52.214;21.238;2023-04-29T10:03:32;100196.91;;;17.95;33.97
56582;BME280;42463;52.214;21.238;2023-04-29T10:05:35;100191.25;;;18.00;33.94
56582;BME280;42463;52.214;21.238;2023-04-29T10:07:39;100193.25;;;18.04;33.51
56582;BME280;42463;52.214;21.238;2023-04-29T10:09:43;100195.05;;;18.07;33.83
56582;BME280;42463;52.214;21.238;2023-04-29T10:11:48;100192.59;;;18.09;33.18
56582;BME280;42463;52.214;21.238;2023-04-29T10:13:51;100190.39;;;18.09;33.37
56582;BME280;42463;52.214;21.238;2023-04-29T10:15:59;100186.21;;;18.12;32.80
56582;BME280;42463;52.214;21.238;2023-04-29T10:18:16;100184.05;;;18.12;32.86
56582;BME280;42463;52.214;21.238;2023-04-29T10:20:23;100186.64;;;18.12;32.84
56582;BME280;42463;52.214;21.238;2023-04-29T10:22:33;100173.29;;;18.12;32.56
56582;BME280;42463;52.214;21.238;2023-04-29T10:24:38;100178.36;;;18.12;32.81
56582;BME280;42463;52.214;21.238;2023-04-29T10:26:42;100175.33;;;18.12;33.13
56582;BME280;42463;52.214;21.238;2023-04-29T10:28:47;100174.31;;;18.14;32.89
56582;BME280;42463;52.214;21.238;2023-04-29T10:30:53;100167.25;;;18.15;33.26
56582;BME280;42463;52.214;21.238;2023-04-29T10:32:59;100170.35;;;18.18;33.03
56582;BME280;42463;52.214;21.238;2023-04-29T10:35:05;100165.67;;;18.21;33.59
56582;BME280;42463;52.214;21.238;2023-04-29T10:37:09;100162.98;;;18.28;33.90
56582;BME280;42463;52.214;21.238;2023-04-29T10:39:22;100161.42;;;18.35;33.45
56582;BME280;42463;52.214;21.238;2023-04-29T10:41:32;100162.75;;;18.44;33.50
56582;BME280;42463;52.214;21.238;2023-04-29T10:43:36;100159.46;;;18.50;33.18
56582;BME280;42463;52.214;21.238;2023-04-29T10:45:39;100155.25;;;18.54;32.72
56582;BME280;42463;52.214;21.238;2023-04-29T10:48:12;100155.30;;;18.57;32.86
56582;BME280;42463;52.214;21.238;2023-04-29T10:50:15;100154.88;;;18.60;32.48
56582;BME280;42463;52.214;21.238;2023-04-29T10:52:18;100153.76;;;18.64;32.72
56582;BME280;42463;52.214;21.238;2023-04-29T10:54:20;100154.20;;;18.68;32.42
56582;BME280;42463;52.214;21.238;2023-04-29T10:56:51;100150.29;;;18.69;31.80
56582;BME280;42463;52.214;21.238;2023-04-29T10:58:54;100154.01;;;18.67;32.02